sensor_id;sensor_type;location;lat;lon;timestamp;P1;durP1;ratioP1;P2;durP2;ratioP2
813;SDS011;389;48.710;9.392;2024-01-06T00:01:29;10.43;;;4.77;;
813;SDS011;389;48.710;9.392;2024-01-06T00:03:55;7.87;;;5.07;;
813;SDS011;389;48.710;9.392;2024-01-06T00:06:20;8.63;;;4.70;;
813;SDS011;389;48.710;9.392;2024-01-06T00:08:46;9.43;;;4.27;;
813;SDS011;389;48.710;9.392;2024-01-06T00:11:18;6.47;;;4.40;;
813;SDS011;389;48.710;9.392;2024-01-06T00:13:47;4.60;;;3.60;;
813;SDS011;389;48.710;9.392;2024-01-06T00:16:12;9.33;;;4.03;;
813;SDS011;389;48.710;9.392;2024-01-06T00:18:41;9.13;;;3.87;;
813;SDS011;389;48.710;9.392;2024-01-06T00:21:06;7.23;;;3.80;;
813;SDS011;389;48.710;9.392;2024-01-06T00:23:33;5.50;;;3.50;;
813;SDS011;389;48.710;9.392;2024-01-06T00:25:58;3.43;;;3.00;;
813;SDS011;389;48.710;9.392;2024-01-06T00:28:24;5.23;;;3.27;;
813;SDS011;389;48.710;9.392;2024-01-06T00:30:49;7.00;;;3.10;;
813;SDS011;389;48.710;9.392;2024-01-06T00:33:15;6.20;;;3.70;;
813;SDS011;389;48.710;9.392;2024-01-06T00:35:40;7.33;;;3.70;;
813;SDS011;389;48.710;9.392;2024-01-06T00:38:06;4.80;;;3.60;;
813;SDS011;389;48.710;9.392;2024-01-06T00:40:32;6.53;;;3.30;;
813;SDS011;389;48.710;9.392;2024-01-06T00:42:57;6.90;;;3.23;;
813;SDS011;389;48.710;9.392;2024-01-06T00:45:23;6.43;;;3.70;;
813;SDS011;389;48.710;9.392;2024-01-06T00:47:49;4.40;;;3.27;;
813;SDS011;389;48.710;9.392;2024-01-06T00:50:15;4.10;;;3.27;;
813;SDS011;389;48.710;9.392;2024-01-06T00:52:41;7.93;;;4.73;;
813;SDS011;389;48.710;9.392;2024-01-06T00:55:07;10.60;;;4.90;;
813;SDS011;389;48.710;9.392;2024-01-06T00:57:33;10.07;;;5.10;;
813;SDS011;389;48.710;9.392;2024-01-06T00:59:59;6.90;;;4.20;;
813;SDS011;389;48.710;9.392;2024-01-06T01:02:24;7.60;;;5.20;;
813;SDS011;389;48.710;9.392;2024-01-06T01:04:50;5.73;;;4.30;;
813;SDS011;389;48.710;9.392;2024-01-06T01:07:17;8.20;;;4.60;;
813;SDS011;389;48.710;9.392;2024-01-06T01:09:42;8.77;;;5.20;;
813;SDS011;389;48.710;9.392;2024-01-06T01:12:08;9.83;;;5.83;;
813;SDS011;389;48.710;9.392;2024-01-06T01:14:33;8.63;;;6.40;;
813;SDS011;389;48.710;9.392;2024-01-06T01:16:59;13.20;;;7.33;;
813;SDS011;389;48.710;9.392;2024-01-06T01:19:25;7.70;;;6.00;;
813;SDS011;389;48.710;9.392;2024-01-06T01:21:50;7.93;;;5.37;;
813;SDS011;389;48.710;9.392;2024-01-06T01:24:20;7.77;;;4.50;;
813;SDS011;389;48.710;9.392;2024-01-06T01:26:46;7.90;;;4.97;;
813;SDS011;389;48.710;9.392;2024-01-06T01:29:12;7.67;;;4.80;;
813;SDS011;389;48.710;9.392;2024-01-06T01:31:37;9.60;;;5.90;;
813;SDS011;389;48.710;9.392;2024-01-06T01:34:03;8.00;;;5.57;;
813;SDS011;389;48.710;9.392;2024-01-06T01:36:28;8.77;;;5.60;;
813;SDS011;389;48.710;9.392;2024-01-06T01:38:54;9.77;;;5.00;;
813;SDS011;389;48.710;9.392;2024-01-06T01:41:19;14.40;;;5.93;;
813;SDS011;389;48.710;9.392;2024-01-06T01:43:45;10.80;;;5.73;;
813;SDS011;389;48.710;9.392;2024-01-06T01:46:11;11.77;;;5.80;;
813;SDS011;389;48.710;9.392;2024-01-06T01:48:37;12.70;;;5.03;;
813;SDS011;389;48.710;9.392;2024-01-06T01:51:03;11.10;;;5.50;;
813;SDS011;389;48.710;9.392;2024-01-06T01:53:29;15.77;;;7.60;;
813;SDS011;389;48.710;9.392;2024-01-06T01:55:57;21.80;;;11.47;;
813;SDS011;389;48.710;9.392;2024-01-06T01:58:23;16.83;;;9.60;;
813;SDS011;389;48.710;9.392;2024-01-06T02:00:48;13.20;;;7.10;;
813;SDS011;389;48.710;9.392;2024-01-06T02:03:14;12.13;;;6.00;;
813;SDS011;389;48.710;9.392;2024-01-06T02:05:41;11.40;;;5.20;;
813;SDS011;389;48.710;9.392;2024-01-06T02:08:07;11.73;;;3.60;;
813;SDS011;389;48.710;9.392;2024-01-06T02:10:33;3.97;;;3.07;;
813;SDS011;389;48.710;9.392;2024-01-06T02:13:07;8.63;;;3.50;;
813;SDS011;389;48.710;9.392;2024-01-06T02:15:34;5.10;;;3.30;;
813;SDS011;389;48.710;9.392;2024-01-06T02:17:59;7.57;;;3.60;;
813;SDS011;389;48.710;9.392;2024-01-06T02:20:25;5.17;;;3.10;;
813;SDS011;389;48.710;9.392;2024-01-06T02:22:51;4.73;;;3.30;;
813;SDS011;389;48.710;9.392;2024-01-06T02:25:17;5.57;;;3.10;;
813;SDS011;389;48.710;9.392;2024-01-06T02:27:43;4.73;;;3.30;;
813;SDS011;389;48.710;9.392;2024-01-06T02:30:09;7.27;;;3.97;;
813;SDS011;389;48.710;9.392;2024-01-06T02:32:34;6.90;;;4.10;;
813;SDS011;389;48.710;9.392;2024-01-06T02:35:00;7.00;;;4.33;;
813;SDS011;389;48.710;9.392;2024-01-06T02:37:26;5.33;;;3.20;;
813;SDS011;389;48.710;9.392;2024-01-06T02:39:52;5.17;;;2.60;;
813;SDS011;389;48.710;9.392;2024-01-06T02:42:18;5.43;;;2.30;;
813;SDS011;389;48.710;9.392;2024-01-06T02:44:44;5.93;;;2.27;;
813;SDS011;389;48.710;9.392;2024-01-06T02:47:10;3.20;;;2.43;;
813;SDS011;389;48.710;9.392;2024-01-06T02:49:35;5.73;;;2.33;;
813;SDS011;389;48.710;9.392;2024-01-06T02:52:01;3.60;;;2.60;;
813;SDS011;389;48.710;9.392;2024-01-06T02:54:26;4.03;;;2.10;;
813;SDS011;389;48.710;9.392;2024-01-06T02:56:52;3.87;;;2.47;;
813;SDS011;389;48.710;9.392;2024-01-06T02:59:17;3.67;;;2.33;;
813;SDS011;389;48.710;9.392;2024-01-06T03:01:43;6.37;;;2.20;;
813;SDS011;389;48.710;9.392;2024-01-06T03:04:08;6.97;;;2.37;;
813;SDS011;389;48.710;9.392;2024-01-06T03:06:34;4.77;;;3.17;;
813;SDS011;389;48.710;9.392;2024-01-06T03:08:59;8.80;;;5.43;;
813;SDS011;389;48.710;9.392;2024-01-06T03:11:25;8.80;;;5.70;;
813;SDS011;389;48.710;9.392;2024-01-06T03:13:50;6.67;;;5.07;;
813;SDS011;389;48.710;9.392;2024-01-06T03:16:16;8.00;;;5.50;;
813;SDS011;389;48.710;9.392;2024-01-06T03:18:42;5.27;;;3.53;;
813;SDS011;389;48.710;9.392;2024-01-06T03:21:19;4.40;;;3.60;;
813;SDS011;389;48.710;9.392;2024-01-06T03:23:46;5.07;;;3.63;;
813;SDS011;389;48.710;9.392;2024-01-06T03:26:13;5.17;;;3.80;;
813;SDS011;389;48.710;9.392;2024-01-06T03:28:38;4.10;;;3.23;;
813;SDS011;389;48.710;9.392;2024-01-06T03:31:04;4.90;;;3.50;;
813;SDS011;389;48.710;9.392;2024-01-06T03:33:29;5.67;;;3.10;;
813;SDS011;389;48.710;9.392;2024-01-06T03:35:55;5.43;;;3.30;;
813;SDS011;389;48.710;9.392;2024-01-06T03:38:20;6.00;;;3.57;;
813;SDS011;389;48.710;9.392;2024-01-06T03:40:46;5.40;;;3.93;;
813;SDS011;389;48.710;9.392;2024-01-06T03:43:12;6.20;;;4.27;;
813;SDS011;389;48.710;9.392;2024-01-06T03:45:37;6.83;;;4.03;;
813;SDS011;389;48.710;9.392;2024-01-06T03:48:03;7.57;;;5.10;;
813;SDS011;389;48.710;9.392;2024-01-06T03:50:28;6.50;;;4.03;;
813;SDS011;389;48.710;9.392;2024-01-06T03:52:54;4.60;;;2.97;;
813;SDS011;389;48.710;9.392;2024-01-06T03:55:19;4.00;;;2.90;;
813;SDS011;389;48.710;9.392;2024-01-06T03:57:45;3.70;;;3.10;;
813;SDS011;389;48.710;9.392;2024-01-06T04:00:11;5.03;;;3.50;;
813;SDS011;389;48.710;9.392;2024-01-06T04:02:36;5.20;;;2.80;;
813;SDS011;389;48.710;9.392;2024-01-06T04:05:02;5.90;;;2.93;;
813;SDS011;389;48.710;9.392;2024-01-06T04:07:30;10.67;;;3.30;;
813;SDS011;389;48.710;9.392;2024-01-06T04:09:55;10.43;;;6.30;;
813;SDS011;389;48.710;9.392;2024-01-06T04:12:21;7.20;;;5.03;;
813;SDS011;389;48.710;9.392;2024-01-06T04:14:46;7.23;;;4.73;;
813;SDS011;389;48.710;9.392;2024-01-06T04:17:12;6.97;;;4.27;;
813;SDS011;389;48.710;9.392;2024-01-06T04:19:37;7.60;;;4.20;;
813;SDS011;389;48.710;9.392;2024-01-06T04:22:03;8.30;;;4.70;;
813;SDS011;389;48.710;9.392;2024-01-06T04:24:28;10.23;;;5.60;;
813;SDS011;389;48.710;9.392;2024-01-06T04:26:54;7.10;;;4.00;;
813;SDS011;389;48.710;9.392;2024-01-06T04:29:19;5.73;;;3.60;;
813;SDS011;389;48.710;9.392;2024-01-06T04:31:45;5.77;;;3.60;;
813;SDS011;389;48.710;9.392;2024-01-06T04:34:11;4.90;;;3.57;;
813;SDS011;389;48.710;9.392;2024-01-06T04:36:36;5.40;;;4.33;;
813;SDS011;389;48.710;9.392;2024-01-06T04:39:02;3.83;;;3.40;;
813;SDS011;389;48.710;9.392;2024-01-06T04:41:27;5.10;;;3.50;;
813;SDS011;389;48.710;9.392;2024-01-06T04:43:53;5.23;;;3.10;;
813;SDS011;389;48.710;9.392;2024-01-06T04:46:18;4.20;;;3.00;;
813;SDS011;389;48.710;9.392;2024-01-06T04:48:44;7.20;;;3.10;;
813;SDS011;389;48.710;9.392;2024-01-06T04:51:09;7.83;;;3.40;;
813;SDS011;389;48.710;9.392;2024-01-06T04:53:36;3.50;;;3.13;;
813;SDS011;389;48.710;9.392;2024-01-06T04:56:03;4.57;;;2.80;;
813;SDS011;389;48.710;9.392;2024-01-06T04:58:29;4.83;;;2.90;;
813;SDS011;389;48.710;9.392;2024-01-06T05:00:54;8.20;;;2.30;;
813;SDS011;389;48.710;9.392;2024-01-06T05:03:20;5.27;;;3.10;;
813;SDS011;389;48.710;9.392;2024-01-06T05:05:45;6.23;;;3.23;;
813;SDS011;389;48.710;9.392;2024-01-06T05:08:11;4.47;;;3.40;;
813;SDS011;389;48.710;9.392;2024-01-06T05:10:37;2.97;;;2.70;;
813;SDS011;389;48.710;9.392;2024-01-06T05:13:02;2.83;;;2.43;;
813;SDS011;389;48.710;9.392;2024-01-06T05:15:28;3.63;;;3.00;;
813;SDS011;389;48.710;9.392;2024-01-06T05:17:53;3.27;;;2.60;;
813;SDS011;389;48.710;9.392;2024-01-06T05:20:19;5.87;;;2.90;;
813;SDS011;389;48.710;9.392;2024-01-06T05:22:45;6.43;;;3.07;;
813;SDS011;389;48.710;9.392;2024-01-06T05:25:10;5.10;;;3.47;;
813;SDS011;389;48.710;9.392;2024-01-06T05:27:36;8.40;;;2.93;;
813;SDS011;389;48.710;9.392;2024-01-06T05:30:02;4.80;;;3.13;;
813;SDS011;389;48.710;9.392;2024-01-06T05:32:27;3.70;;;2.93;;
813;SDS011;389;48.710;9.392;2024-01-06T05:34:53;4.47;;;3.10;;
813;SDS011;389;48.710;9.392;2024-01-06T05:37:18;5.57;;;3.40;;
813;SDS011;389;48.710;9.392;2024-01-06T05:39:44;5.33;;;3.47;;
813;SDS011;389;48.710;9.392;2024-01-06T05:42:10;10.80;;;3.60;;
813;SDS011;389;48.710;9.392;2024-01-06T05:44:40;3.97;;;3.43;;
813;SDS011;389;48.710;9.392;2024-01-06T05:47:06;6.80;;;4.77;;
813;SDS011;389;48.710;9.392;2024-01-06T05:49:33;10.83;;;5.33;;
813;SDS011;389;48.710;9.392;2024-01-06T05:51:58;6.77;;;5.70;;
813;SDS011;389;48.710;9.392;2024-01-06T05:54:24;8.87;;;5.47;;
813;SDS011;389;48.710;9.392;2024-01-06T05:56:49;6.93;;;4.40;;
813;SDS011;389;48.710;9.392;2024-01-06T05:59:15;7.90;;;4.97;;
813;SDS011;389;48.710;9.392;2024-01-06T06:01:40;7.53;;;4.50;;
813;SDS011;389;48.710;9.392;2024-01-06T06:04:06;9.83;;;4.73;;
813;SDS011;389;48.710;9.392;2024-01-06T06:06:31;7.63;;;4.43;;
813;SDS011;389;48.710;9.392;2024-01-06T06:08:57;6.33;;;4.50;;
813;SDS011;389;48.710;9.392;2024-01-06T06:11:23;8.67;;;5.80;;
813;SDS011;389;48.710;9.392;2024-01-06T06:13:49;5.60;;;4.43;;
813;SDS011;389;48.710;9.392;2024-01-06T06:16:14;7.70;;;4.90;;
813;SDS011;389;48.710;9.392;2024-01-06T06:18:40;8.83;;;5.30;;
813;SDS011;389;48.710;9.392;2024-01-06T06:21:06;10.77;;;5.47;;
813;SDS011;389;48.710;9.392;2024-01-06T06:23:32;9.37;;;5.67;;
813;SDS011;389;48.710;9.392;2024-01-06T06:25:58;9.40;;;5.30;;
813;SDS011;389;48.710;9.392;2024-01-06T06:28:26;6.13;;;4.50;;
813;SDS011;389;48.710;9.392;2024-01-06T06:30:52;9.03;;;5.07;;
813;SDS011;389;48.710;9.392;2024-01-06T06:33:18;5.63;;;4.40;;
813;SDS011;389;48.710;9.392;2024-01-06T06:35:43;11.23;;;5.07;;
813;SDS011;389;48.710;9.392;2024-01-06T06:38:09;8.07;;;5.47;;
813;SDS011;389;48.710;9.392;2024-01-06T06:40:34;9.33;;;5.30;;
813;SDS011;389;48.710;9.392;2024-01-06T06:43:00;11.00;;;5.03;;
813;SDS011;389;48.710;9.392;2024-01-06T06:45:25;6.20;;;4.53;;
813;SDS011;389;48.710;9.392;2024-01-06T06:47:51;6.13;;;4.23;;
813;SDS011;389;48.710;9.392;2024-01-06T06:50:17;6.80;;;4.67;;
813;SDS011;389;48.710;9.392;2024-01-06T06:52:43;5.83;;;4.93;;
813;SDS011;389;48.710;9.392;2024-01-06T06:55:09;8.40;;;5.40;;
813;SDS011;389;48.710;9.392;2024-01-06T06:57:36;10.50;;;5.57;;
813;SDS011;389;48.710;9.392;2024-01-06T07:00:01;6.43;;;4.97;;
813;SDS011;389;48.710;9.392;2024-01-06T07:02:27;7.97;;;5.07;;
813;SDS011;389;48.710;9.392;2024-01-06T07:04:53;8.20;;;5.73;;
813;SDS011;389;48.710;9.392;2024-01-06T07:07:18;8.13;;;5.07;;
813;SDS011;389;48.710;9.392;2024-01-06T07:09:44;7.80;;;4.80;;
813;SDS011;389;48.710;9.392;2024-01-06T07:12:09;8.10;;;4.90;;
813;SDS011;389;48.710;9.392;2024-01-06T07:14:36;9.83;;;5.87;;
813;SDS011;389;48.710;9.392;2024-01-06T07:17:02;9.00;;;5.90;;
813;SDS011;389;48.710;9.392;2024-01-06T07:19:29;8.33;;;5.63;;
813;SDS011;389;48.710;9.392;2024-01-06T07:21:56;8.70;;;5.63;;
813;SDS011;389;48.710;9.392;2024-01-06T07:24:22;7.87;;;5.50;;
813;SDS011;389;48.710;9.392;2024-01-06T07:26:47;15.17;;;7.40;;
813;SDS011;389;48.710;9.392;2024-01-06T07:29:13;17.33;;;8.90;;
813;SDS011;389;48.710;9.392;2024-01-06T07:31:38;11.57;;;6.20;;
813;SDS011;389;48.710;9.392;2024-01-06T07:34:04;12.73;;;6.67;;
813;SDS011;389;48.710;9.392;2024-01-06T07:36:31;10.57;;;7.67;;
813;SDS011;389;48.710;9.392;2024-01-06T07:38:57;16.77;;;7.30;;
813;SDS011;389;48.710;9.392;2024-01-06T07:41:22;9.87;;;6.67;;
813;SDS011;389;48.710;9.392;2024-01-06T07:43:48;10.20;;;7.37;;
813;SDS011;389;48.710;9.392;2024-01-06T07:46:13;15.43;;;8.00;;
813;SDS011;389;48.710;9.392;2024-01-06T07:48:39;14.13;;;8.63;;
813;SDS011;389;48.710;9.392;2024-01-06T07:51:04;16.30;;;8.97;;
813;SDS011;389;48.710;9.392;2024-01-06T07:53:30;10.03;;;7.33;;
813;SDS011;389;48.710;9.392;2024-01-06T07:55:55;19.40;;;11.60;;
813;SDS011;389;48.710;9.392;2024-01-06T07:58:22;22.87;;;13.77;;
813;SDS011;389;48.710;9.392;2024-01-06T08:00:47;23.90;;;14.40;;
813;SDS011;389;48.710;9.392;2024-01-06T08:03:13;16.10;;;11.07;;
813;SDS011;389;48.710;9.392;2024-01-06T08:05:38;14.03;;;9.60;;
813;SDS011;389;48.710;9.392;2024-01-06T08:08:04;15.27;;;8.30;;
813;SDS011;389;48.710;9.392;2024-01-06T08:10:30;11.30;;;7.47;;
813;SDS011;389;48.710;9.392;2024-01-06T08:12:56;11.10;;;6.97;;
813;SDS011;389;48.710;9.392;2024-01-06T08:15:22;14.00;;;6.40;;
813;SDS011;389;48.710;9.392;2024-01-06T08:17:47;10.50;;;6.10;;
813;SDS011;389;48.710;9.392;2024-01-06T08:20:13;9.77;;;5.80;;
813;SDS011;389;48.710;9.392;2024-01-06T08:22:38;9.10;;;5.30;;
813;SDS011;389;48.710;9.392;2024-01-06T08:25:04;7.80;;;5.40;;
813;SDS011;389;48.710;9.392;2024-01-06T08:27:33;7.00;;;5.43;;
813;SDS011;389;48.710;9.392;2024-01-06T08:29:59;7.90;;;5.40;;
813;SDS011;389;48.710;9.392;2024-01-06T08:32:25;10.50;;;6.83;;
813;SDS011;389;48.710;9.392;2024-01-06T08:34:51;9.93;;;7.27;;
813;SDS011;389;48.710;9.392;2024-01-06T08:37:17;8.60;;;6.17;;
813;SDS011;389;48.710;9.392;2024-01-06T08:39:42;9.00;;;5.27;;
813;SDS011;389;48.710;9.392;2024-01-06T08:42:08;10.67;;;6.40;;
813;SDS011;389;48.710;9.392;2024-01-06T08:44:33;8.70;;;5.43;;
813;SDS011;389;48.710;9.392;2024-01-06T08:46:59;5.50;;;4.77;;
813;SDS011;389;48.710;9.392;2024-01-06T08:49:24;6.57;;;4.70;;
813;SDS011;389;48.710;9.392;2024-01-06T08:51:50;7.37;;;5.50;;
813;SDS011;389;48.710;9.392;2024-01-06T08:54:16;7.33;;;5.20;;
813;SDS011;389;48.710;9.392;2024-01-06T08:56:41;6.63;;;4.77;;
813;SDS011;389;48.710;9.392;2024-01-06T08:59:07;22.63;;;13.37;;
813;SDS011;389;48.710;9.392;2024-01-06T09:01:32;12.60;;;9.03;;
813;SDS011;389;48.710;9.392;2024-01-06T09:04:01;7.67;;;5.37;;
813;SDS011;389;48.710;9.392;2024-01-06T09:06:26;7.00;;;4.83;;
813;SDS011;389;48.710;9.392;2024-01-06T09:08:52;7.27;;;5.47;;
813;SDS011;389;48.710;9.392;2024-01-06T09:11:18;4.37;;;3.97;;
813;SDS011;389;48.710;9.392;2024-01-06T09:13:43;6.80;;;4.77;;
813;SDS011;389;48.710;9.392;2024-01-06T09:16:09;12.30;;;8.90;;
813;SDS011;389;48.710;9.392;2024-01-06T09:18:35;7.10;;;4.90;;
813;SDS011;389;48.710;9.392;2024-01-06T09:21:01;8.60;;;5.03;;
813;SDS011;389;48.710;9.392;2024-01-06T09:23:28;4.93;;;4.03;;
813;SDS011;389;48.710;9.392;2024-01-06T09:25:53;7.87;;;4.80;;
813;SDS011;389;48.710;9.392;2024-01-06T09:28:19;24.00;;;12.00;;
813;SDS011;389;48.710;9.392;2024-01-06T09:30:46;9.70;;;5.80;;
813;SDS011;389;48.710;9.392;2024-01-06T09:33:12;7.77;;;4.70;;
813;SDS011;389;48.710;9.392;2024-01-06T09:35:42;5.90;;;4.30;;
813;SDS011;389;48.710;9.392;2024-01-06T09:38:09;6.30;;;4.93;;
813;SDS011;389;48.710;9.392;2024-01-06T09:40:35;12.17;;;8.60;;
813;SDS011;389;48.710;9.392;2024-01-06T09:43:05;8.60;;;7.30;;
813;SDS011;389;48.710;9.392;2024-01-06T09:45:31;5.57;;;4.70;;
813;SDS011;389;48.710;9.392;2024-01-06T09:47:56;6.63;;;5.00;;
813;SDS011;389;48.710;9.392;2024-01-06T09:50:24;8.30;;;5.30;;
813;SDS011;389;48.710;9.392;2024-01-06T09:52:50;8.67;;;6.47;;
813;SDS011;389;48.710;9.392;2024-01-06T09:55:25;7.93;;;5.33;;
813;SDS011;389;48.710;9.392;2024-01-06T09:57:54;6.30;;;5.17;;
813;SDS011;389;48.710;9.392;2024-01-06T10:00:20;6.50;;;5.67;;
813;SDS011;389;48.710;9.392;2024-01-06T10:02:47;9.50;;;5.57;;
813;SDS011;389;48.710;9.392;2024-01-06T10:05:16;13.00;;;9.93;;
813;SDS011;389;48.710;9.392;2024-01-06T10:07:43;8.20;;;6.30;;
813;SDS011;389;48.710;9.392;2024-01-06T10:10:12;6.80;;;5.90;;
813;SDS011;389;48.710;9.392;2024-01-06T10:12:38;10.40;;;5.90;;
813;SDS011;389;48.710;9.392;2024-01-06T10:15:05;8.07;;;5.60;;
813;SDS011;389;48.710;9.392;2024-01-06T10:17:32;12.77;;;7.30;;
813;SDS011;389;48.710;9.392;2024-01-06T10:19:59;11.60;;;7.00;;
813;SDS011;389;48.710;9.392;2024-01-06T10:22:25;8.77;;;6.60;;
813;SDS011;389;48.710;9.392;2024-01-06T10:24:50;5.90;;;4.63;;
813;SDS011;389;48.710;9.392;2024-01-06T10:27:16;6.70;;;5.20;;
813;SDS011;389;48.710;9.392;2024-01-06T10:29:41;5.83;;;5.07;;
813;SDS011;389;48.710;9.392;2024-01-06T10:32:07;7.30;;;4.63;;
813;SDS011;389;48.710;9.392;2024-01-06T10:34:33;5.13;;;4.50;;
813;SDS011;389;48.710;9.392;2024-01-06T10:37:01;6.23;;;3.97;;
813;SDS011;389;48.710;9.392;2024-01-06T10:39:27;3.97;;;3.37;;
813;SDS011;389;48.710;9.392;2024-01-06T10:41:54;3.90;;;3.60;;
813;SDS011;389;48.710;9.392;2024-01-06T10:44:21;3.43;;;3.13;;
813;SDS011;389;48.710;9.392;2024-01-06T10:46:46;3.87;;;3.10;;
813;SDS011;389;48.710;9.392;2024-01-06T10:49:14;4.10;;;3.13;;
813;SDS011;389;48.710;9.392;2024-01-06T10:51:42;4.50;;;2.97;;
813;SDS011;389;48.710;9.392;2024-01-06T10:54:11;4.30;;;3.20;;
813;SDS011;389;48.710;9.392;2024-01-06T10:56:38;3.53;;;3.13;;
813;SDS011;389;48.710;9.392;2024-01-06T10:59:03;2.70;;;2.50;;
813;SDS011;389;48.710;9.392;2024-01-06T11:01:29;7.73;;;3.50;;
813;SDS011;389;48.710;9.392;2024-01-06T11:03:56;5.90;;;3.40;;
813;SDS011;389;48.710;9.392;2024-01-06T11:06:23;4.30;;;3.43;;
813;SDS011;389;48.710;9.392;2024-01-06T11:11:39;4.30;;;2.83;;
813;SDS011;389;48.710;9.392;2024-01-06T11:14:38;3.50;;;3.07;;
813;SDS011;389;48.710;9.392;2024-01-06T11:17:03;3.37;;;3.00;;
813;SDS011;389;48.710;9.392;2024-01-06T11:22:19;3.80;;;2.97;;
813;SDS011;389;48.710;9.392;2024-01-06T11:24:49;5.50;;;3.40;;
813;SDS011;389;48.710;9.392;2024-01-06T11:27:19;5.53;;;3.07;;
813;SDS011;389;48.710;9.392;2024-01-06T11:29:47;4.27;;;3.27;;
813;SDS011;389;48.710;9.392;2024-01-06T11:32:17;6.90;;;3.00;;
813;SDS011;389;48.710;9.392;2024-01-06T11:34:47;2.87;;;2.63;;
813;SDS011;389;48.710;9.392;2024-01-06T11:37:18;5.83;;;3.87;;
813;SDS011;389;48.710;9.392;2024-01-06T11:39:45;4.00;;;2.50;;
813;SDS011;389;48.710;9.392;2024-01-06T11:42:10;2.40;;;2.10;;
813;SDS011;389;48.710;9.392;2024-01-06T11:44:37;1.90;;;1.80;;
813;SDS011;389;48.710;9.392;2024-01-06T11:47:08;2.37;;;1.93;;
813;SDS011;389;48.710;9.392;2024-01-06T11:49:37;1.80;;;1.70;;
813;SDS011;389;48.710;9.392;2024-01-06T11:52:02;4.60;;;3.73;;
813;SDS011;389;48.710;9.392;2024-01-06T11:54:28;4.20;;;3.80;;
813;SDS011;389;48.710;9.392;2024-01-06T11:56:55;3.67;;;3.30;;
813;SDS011;389;48.710;9.392;2024-01-06T11:59:22;4.97;;;3.67;;
813;SDS011;389;48.710;9.392;2024-01-06T12:01:48;5.70;;;3.90;;
813;SDS011;389;48.710;9.392;2024-01-06T12:04:14;7.40;;;5.23;;
813;SDS011;389;48.710;9.392;2024-01-06T12:06:42;5.90;;;4.60;;
813;SDS011;389;48.710;9.392;2024-01-06T12:09:10;3.60;;;2.80;;
813;SDS011;389;48.710;9.392;2024-01-06T12:11:40;3.30;;;3.00;;
813;SDS011;389;48.710;9.392;2024-01-06T12:14:06;5.83;;;4.80;;
813;SDS011;389;48.710;9.392;2024-01-06T12:16:31;5.80;;;4.60;;
813;SDS011;389;48.710;9.392;2024-01-06T12:18:58;4.70;;;3.60;;
813;SDS011;389;48.710;9.392;2024-01-06T12:21:25;11.97;;;6.03;;
813;SDS011;389;48.710;9.392;2024-01-06T12:23:52;6.10;;;4.40;;
813;SDS011;389;48.710;9.392;2024-01-06T12:26:17;4.10;;;3.23;;
813;SDS011;389;48.710;9.392;2024-01-06T12:28:46;4.70;;;3.70;;
813;SDS011;389;48.710;9.392;2024-01-06T12:31:14;4.17;;;3.30;;
813;SDS011;389;48.710;9.392;2024-01-06T12:33:40;6.77;;;4.17;;
813;SDS011;389;48.710;9.392;2024-01-06T12:36:09;15.60;;;9.23;;
813;SDS011;389;48.710;9.392;2024-01-06T12:38:36;4.30;;;3.00;;
813;SDS011;389;48.710;9.392;2024-01-06T12:41:02;3.73;;;3.40;;
813;SDS011;389;48.710;9.392;2024-01-06T12:43:29;4.07;;;2.33;;
813;SDS011;389;48.710;9.392;2024-01-06T12:45:54;3.97;;;3.50;;
813;SDS011;389;48.710;9.392;2024-01-06T12:48:22;4.10;;;2.80;;
813;SDS011;389;48.710;9.392;2024-01-06T12:50:47;3.97;;;2.90;;
813;SDS011;389;48.710;9.392;2024-01-06T12:53:13;3.80;;;2.73;;
813;SDS011;389;48.710;9.392;2024-01-06T12:55:40;2.70;;;2.30;;
813;SDS011;389;48.710;9.392;2024-01-06T12:58:06;3.00;;;2.30;;
813;SDS011;389;48.710;9.392;2024-01-06T13:00:33;5.00;;;3.50;;
813;SDS011;389;48.710;9.392;2024-01-06T13:02:59;4.40;;;2.77;;
813;SDS011;389;48.710;9.392;2024-01-06T13:05:24;3.40;;;2.83;;
813;SDS011;389;48.710;9.392;2024-01-06T13:07:50;11.20;;;6.47;;
813;SDS011;389;48.710;9.392;2024-01-06T13:10:16;7.30;;;4.40;;
813;SDS011;389;48.710;9.392;2024-01-06T13:12:41;4.43;;;3.77;;
813;SDS011;389;48.710;9.392;2024-01-06T13:15:07;5.23;;;3.93;;
813;SDS011;389;48.710;9.392;2024-01-06T13:17:36;3.97;;;2.70;;
813;SDS011;389;48.710;9.392;2024-01-06T13:20:02;3.67;;;2.90;;
813;SDS011;389;48.710;9.392;2024-01-06T13:22:33;7.33;;;4.33;;
813;SDS011;389;48.710;9.392;2024-01-06T13:24:58;9.23;;;6.27;;
813;SDS011;389;48.710;9.392;2024-01-06T13:27:24;12.00;;;6.33;;
813;SDS011;389;48.710;9.392;2024-01-06T13:29:52;7.57;;;4.83;;
813;SDS011;389;48.710;9.392;2024-01-06T13:32:17;8.63;;;4.63;;
813;SDS011;389;48.710;9.392;2024-01-06T13:34:44;6.90;;;4.80;;
813;SDS011;389;48.710;9.392;2024-01-06T13:37:09;6.67;;;4.90;;
813;SDS011;389;48.710;9.392;2024-01-06T13:39:35;5.57;;;4.70;;
813;SDS011;389;48.710;9.392;2024-01-06T13:42:01;5.20;;;4.20;;
813;SDS011;389;48.710;9.392;2024-01-06T13:44:28;4.73;;;3.43;;
813;SDS011;389;48.710;9.392;2024-01-06T13:46:54;4.83;;;4.00;;
813;SDS011;389;48.710;9.392;2024-01-06T13:49:19;5.37;;;3.67;;
813;SDS011;389;48.710;9.392;2024-01-06T13:51:46;5.20;;;3.83;;
813;SDS011;389;48.710;9.392;2024-01-06T13:54:11;15.30;;;9.83;;
813;SDS011;389;48.710;9.392;2024-01-06T13:56:37;9.70;;;7.10;;
813;SDS011;389;48.710;9.392;2024-01-06T13:59:03;8.40;;;5.57;;
813;SDS011;389;48.710;9.392;2024-01-06T14:01:29;6.83;;;3.93;;
813;SDS011;389;48.710;9.392;2024-01-06T14:03:55;17.53;;;10.17;;
813;SDS011;389;48.710;9.392;2024-01-06T14:06:25;10.00;;;5.90;;
813;SDS011;389;48.710;9.392;2024-01-06T14:08:58;10.03;;;7.30;;
813;SDS011;389;48.710;9.392;2024-01-06T14:11:28;7.10;;;4.40;;
813;SDS011;389;48.710;9.392;2024-01-06T14:13:56;6.63;;;4.90;;
813;SDS011;389;48.710;9.392;2024-01-06T14:16:23;6.40;;;5.33;;
813;SDS011;389;48.710;9.392;2024-01-06T14:18:48;8.17;;;5.10;;
813;SDS011;389;48.710;9.392;2024-01-06T14:21:14;8.27;;;6.80;;
813;SDS011;389;48.710;9.392;2024-01-06T14:23:41;7.13;;;5.43;;
813;SDS011;389;48.710;9.392;2024-01-06T14:26:06;7.60;;;5.70;;
813;SDS011;389;48.710;9.392;2024-01-06T14:28:32;17.40;;;9.20;;
813;SDS011;389;48.710;9.392;2024-01-06T14:30:58;12.60;;;9.23;;
813;SDS011;389;48.710;9.392;2024-01-06T14:33:23;10.00;;;6.70;;
813;SDS011;389;48.710;9.392;2024-01-06T14:35:51;10.43;;;7.00;;
813;SDS011;389;48.710;9.392;2024-01-06T14:38:20;13.50;;;9.50;;
813;SDS011;389;48.710;9.392;2024-01-06T14:40:50;10.30;;;7.20;;
813;SDS011;389;48.710;9.392;2024-01-06T14:43:19;12.80;;;6.60;;
813;SDS011;389;48.710;9.392;2024-01-06T14:45:46;9.80;;;7.00;;
813;SDS011;389;48.710;9.392;2024-01-06T14:48:19;9.87;;;6.50;;
813;SDS011;389;48.710;9.392;2024-01-06T14:50:47;9.40;;;6.60;;
813;SDS011;389;48.710;9.392;2024-01-06T14:56:17;8.87;;;6.40;;
813;SDS011;389;48.710;9.392;2024-01-06T14:58:42;9.47;;;7.63;;
813;SDS011;389;48.710;9.392;2024-01-06T15:01:11;7.47;;;5.10;;
813;SDS011;389;48.710;9.392;2024-01-06T15:03:42;7.57;;;5.63;;
813;SDS011;389;48.710;9.392;2024-01-06T15:06:12;8.40;;;5.40;;
813;SDS011;389;48.710;9.392;2024-01-06T15:08:52;7.23;;;5.30;;
813;SDS011;389;48.710;9.392;2024-01-06T15:11:37;8.07;;;5.87;;
813;SDS011;389;48.710;9.392;2024-01-06T15:14:11;8.97;;;5.00;;
813;SDS011;389;48.710;9.392;2024-01-06T15:16:37;6.60;;;4.93;;
813;SDS011;389;48.710;9.392;2024-01-06T15:19:09;6.87;;;5.30;;
813;SDS011;389;48.710;9.392;2024-01-06T15:21:37;8.10;;;6.77;;
813;SDS011;389;48.710;9.392;2024-01-06T15:24:26;7.50;;;5.20;;
813;SDS011;389;48.710;9.392;2024-01-06T15:26:52;12.67;;;6.83;;
813;SDS011;389;48.710;9.392;2024-01-06T15:29:18;14.00;;;8.67;;
813;SDS011;389;48.710;9.392;2024-01-06T15:31:43;7.90;;;5.77;;
813;SDS011;389;48.710;9.392;2024-01-06T15:34:09;9.83;;;6.80;;
813;SDS011;389;48.710;9.392;2024-01-06T15:36:34;19.37;;;11.23;;
813;SDS011;389;48.710;9.392;2024-01-06T15:39:00;17.17;;;10.53;;
813;SDS011;389;48.710;9.392;2024-01-06T16:57:31;11.50;;;7.93;;
813;SDS011;389;48.710;9.392;2024-01-06T16:59:57;13.50;;;8.23;;
813;SDS011;389;48.710;9.392;2024-01-06T17:02:23;16.43;;;9.70;;